createdAt,value
2022-10-17T00:03:54.305Z,5.20
2022-10-17T00:08:55.970Z,5.70
2022-10-17T00:13:57.621Z,5.75
2022-10-17T00:18:59.915Z,5.25
2022-10-17T00:24:01.899Z,5.22
2022-10-17T00:29:03.732Z,4.90
2022-10-17T00:34:05.488Z,6.18
2022-10-17T00:39:07.148Z,6.78
2022-10-17T00:44:30.568Z,5.20
2022-10-17T00:49:36.514Z,4.80
2022-10-17T00:54:43.635Z,5.60
2022-10-17T00:59:50.121Z,5.22
2022-10-17T01:04:55.671Z,4.43
2022-10-17T01:09:57.383Z,5.22
2022-10-17T01:15:09.895Z,5.10
2022-10-17T01:20:15.609Z,4.85
2022-10-17T01:25:36.147Z,5.10
2022-10-17T01:30:53.016Z,4.03
2022-10-17T01:36:04.747Z,3.90
2022-10-17T01:41:16.261Z,4.45
2022-10-17T01:46:28.232Z,4.22
2022-10-17T01:51:45.001Z,4.68
2022-10-17T01:56:51.250Z,4.35
2022-10-17T02:01:55.958Z,4.50
2022-10-17T02:06:57.809Z,4.38
2022-10-17T02:12:36.588Z,3.53
2022-10-17T02:18:01.709Z,5.70
2022-10-17T02:23:26.404Z,4.57
2022-10-17T02:28:28.084Z,4.25
2022-10-17T02:33:35.537Z,4.68
2022-10-17T02:38:40.170Z,4.43
2022-10-17T02:43:45.357Z,4.22
2022-10-17T02:49:28.279Z,4.10
2022-10-17T02:54:52.174Z,4.00
2022-10-17T02:59:57.502Z,4.70
2022-10-17T03:04:59.310Z,3.83
2022-10-17T03:10:01.142Z,4.22
2022-10-17T03:15:04.944Z,3.92
2022-10-17T03:20:07.494Z,3.90
2022-10-17T03:25:09.303Z,4.15
2022-10-17T03:30:11.808Z,4.10
2022-10-17T03:35:15.049Z,4.03
2022-10-17T03:40:20.387Z,3.95
2022-10-17T03:45:22.707Z,4.40
2022-10-17T03:50:24.874Z,4.03
2022-10-17T03:55:27.080Z,3.55
2022-10-17T04:00:28.914Z,3.95
2022-10-17T04:05:33.008Z,4.32
2022-10-17T04:10:34.836Z,4.38
2022-10-17T04:15:37.021Z,5.00
2022-10-17T04:20:39.773Z,3.60
2022-10-17T04:25:42.147Z,4.82
2022-10-17T04:30:45.560Z,4.93
2022-10-17T04:36:02.282Z,3.92
2022-10-17T04:41:08.808Z,4.15
2022-10-17T04:46:13.004Z,4.28
2022-10-17T04:51:20.606Z,4.47
2022-10-17T04:56:43.674Z,4.25
2022-10-17T05:01:45.517Z,6.03
2022-10-17T05:06:48.248Z,4.35
2022-10-17T05:12:10.312Z,4.55
2022-10-17T05:17:16.051Z,4.35
2022-10-17T05:22:17.863Z,4.50
2022-10-17T05:27:19.793Z,4.45
2022-10-17T05:32:21.622Z,4.63
2022-10-17T05:37:23.444Z,4.95
2022-10-17T05:42:28.201Z,4.57
2022-10-17T05:47:32.005Z,5.15
2022-10-17T05:52:34.274Z,4.82
2022-10-17T05:57:44.681Z,5.22
2022-10-17T06:02:50.992Z,4.72
2022-10-17T06:07:57.041Z,5.65
2022-10-17T06:13:02.092Z,5.18
2022-10-17T06:18:04.062Z,5.10
2022-10-17T06:23:06.448Z,6.22
2022-10-17T06:28:31.539Z,6.68
2022-10-17T06:33:33.393Z,6.10
2022-10-17T06:38:35.700Z,7.00
2022-10-17T06:43:48.612Z,6.95
2022-10-17T06:49:10.376Z,5.80
2022-10-17T06:54:18.486Z,7.40
2022-10-17T06:59:36.645Z,8.07
2022-10-17T07:04:46.326Z,7.88
2022-10-17T07:09:48.070Z,8.38
2022-10-17T07:14:51.880Z,8.48
2022-10-17T07:19:54.195Z,8.27
2022-10-17T07:24:56.049Z,9.95
2022-10-17T07:30:16.880Z,10.82
2022-10-17T07:35:42.301Z,14.48
2022-10-17T07:40:45.286Z,13.57
2022-10-17T07:45:46.932Z,19.10
2022-10-17T07:50:49.113Z,18.58
2022-10-17T07:55:51.467Z,16.65
2022-10-17T08:00:53.287Z,19.50
2022-10-17T08:05:58.282Z,17.75
2022-10-17T08:11:05.788Z,15.57
2022-10-17T08:16:10.227Z,15.82
2022-10-17T08:21:13.530Z,12.32
2022-10-17T08:26:17.370Z,13.85
2022-10-17T08:31:20.198Z,12.20
2022-10-17T08:36:22.015Z,11.55
2022-10-17T08:41:53.946Z,12.07
2022-10-17T08:47:00.128Z,9.70
2022-10-17T08:52:14.983Z,9.40
2022-10-17T08:57:17.722Z,8.35
2022-10-17T09:02:37.862Z,9.35
2022-10-17T09:07:57.984Z,9.35
2022-10-17T09:13:18.484Z,10.07
2022-10-17T09:18:31.830Z,11.40
2022-10-17T09:23:45.914Z,10.50
2022-10-17T09:28:54.341Z,11.55
2022-10-17T09:33:57.906Z,13.40
2022-10-17T09:39:05.821Z,15.95
2022-10-17T09:44:21.903Z,17.40
2022-10-17T09:49:32.618Z,16.30
2022-10-17T09:54:48.131Z,17.00
2022-10-17T09:59:59.409Z,16.35
2022-10-17T10:05:17.332Z,16.23
2022-10-17T10:10:28.123Z,15.40
2022-10-17T10:15:37.821Z,15.35
2022-10-17T10:20:40.697Z,13.63
2022-10-17T10:26:00.227Z,14.43
2022-10-17T10:31:09.949Z,13.50
2022-10-17T10:36:11.754Z,13.65
2022-10-17T10:41:13.406Z,12.13
2022-10-17T10:46:27.920Z,14.10
2022-10-17T10:51:37.512Z,14.15
2022-10-17T10:56:48.697Z,15.27
2022-10-17T11:01:52.987Z,14.13
2022-10-17T11:07:01.258Z,15.32
2022-10-17T11:12:12.057Z,16.70
2022-10-17T11:17:23.253Z,13.65
2022-10-17T11:23:00.092Z,14.73
2022-10-17T11:28:05.294Z,14.98
2022-10-17T11:33:12.396Z,13.65
2022-10-17T11:38:25.406Z,15.23
2022-10-17T11:43:38.796Z,14.77
2022-10-17T11:48:49.374Z,16.13
2022-10-17T11:53:57.500Z,17.27
2022-10-17T11:59:31.545Z,16.58
2022-10-17T12:04:39.488Z,15.50
2022-10-17T12:10:19.476Z,15.27
2022-10-17T12:15:23.468Z,15.48
2022-10-17T12:20:28.077Z,14.82
2022-10-17T12:25:33.789Z,13.50
2022-10-17T12:30:35.563Z,13.60
2022-10-17T12:35:38.851Z,13.07
2022-10-17T12:40:48.433Z,13.48
2022-10-17T12:45:58.434Z,13.93
2022-10-17T12:51:34.133Z,14.48
2022-10-17T12:56:45.726Z,14.70
2022-10-17T13:01:52.011Z,14.52
2022-10-17T13:06:58.724Z,15.32
2022-10-17T13:12:04.650Z,13.80
2022-10-17T13:17:07.835Z,14.75
2022-10-17T13:22:19.044Z,14.70
2022-10-17T13:27:35.012Z,15.75
2022-10-17T13:32:39.801Z,16.95
2022-10-17T13:37:43.918Z,16.00
2022-10-17T13:42:46.351Z,15.13
2022-10-17T13:47:48.427Z,15.07
2022-10-17T13:53:06.665Z,15.93
2022-10-17T13:58:18.329Z,17.90
2022-10-17T14:03:21.520Z,17.05
2022-10-17T14:08:23.982Z,16.52
2022-10-17T14:13:29.056Z,19.33
2022-10-17T14:18:36.377Z,18.30
2022-10-17T14:23:41.964Z,19.52
2022-10-17T14:28:46.804Z,19.75
2022-10-17T14:33:51.106Z,20.50
2022-10-17T14:38:53.151Z,21.50
2022-10-17T14:43:58.168Z,20.17
2022-10-17T14:49:07.306Z,22.00
2022-10-17T14:54:26.025Z,22.20
2022-10-17T14:59:52.884Z,22.48
2022-10-17T15:04:49.408Z,21.88
2022-10-17T15:09:52.802Z,21.80
2022-10-17T15:14:54.499Z,22.67
2022-10-17T15:19:57.366Z,21.75
2022-10-17T15:24:59.020Z,23.77
2022-10-17T15:30:00.784Z,22.50
2022-10-17T15:35:02.445Z,21.77
2022-10-17T15:40:04.442Z,22.60
2022-10-17T15:50:15.233Z,22.67
2022-10-17T15:55:17.891Z,23.30
2022-10-17T16:00:24.343Z,22.85
2022-10-17T16:05:26.299Z,23.65
2022-10-17T16:10:28.272Z,26.00
2022-10-17T16:15:29.923Z,22.92
2022-10-17T16:20:32.097Z,24.88
2022-10-17T16:25:34.253Z,24.42
2022-10-17T16:30:42.640Z,23.23
2022-10-17T16:35:45.688Z,24.25
2022-10-17T16:40:47.338Z,23.25
2022-10-17T16:45:48.983Z,26.00
2022-10-17T16:50:50.634Z,27.17
2022-10-17T16:56:03.168Z,25.67
2022-10-17T17:01:07.464Z,25.60
2022-10-17T17:06:13.789Z,27.38
2022-10-17T17:11:17.172Z,25.63
2022-10-17T17:16:23.855Z,25.92
2022-10-17T17:21:27.022Z,26.90
2022-10-17T17:26:31.172Z,25.58
2022-10-17T17:31:34.437Z,26.88
2022-10-17T17:36:38.509Z,26.25
2022-10-17T17:41:41.399Z,27.30
2022-10-17T17:46:43.693Z,26.17
2022-10-17T17:51:46.618Z,27.08
2022-10-17T17:56:48.365Z,30.27
2022-10-17T18:01:50.241Z,30.55
2022-10-17T18:06:51.935Z,28.13
2022-10-17T18:11:54.033Z,28.42
2022-10-17T18:16:55.775Z,28.85
2022-10-17T18:21:57.475Z,26.60
2022-10-17T18:26:59.984Z,27.40
2022-10-17T18:32:01.738Z,27.90
2022-10-17T18:37:03.885Z,29.33
2022-10-17T18:42:05.534Z,28.65
2022-10-17T18:47:07.203Z,29.20
2022-10-17T18:52:08.973Z,30.48
2022-10-17T18:57:10.684Z,30.55
2022-10-17T19:02:15.264Z,29.67
2022-10-17T19:07:18.936Z,29.92
2022-10-17T19:12:20.972Z,31.25
2022-10-17T19:17:22.857Z,31.55
2022-10-17T19:22:24.564Z,32.03
2022-10-17T19:27:26.212Z,31.88
2022-10-17T19:32:29.356Z,32.47
2022-10-17T19:37:32.684Z,32.22
2022-10-17T19:42:35.175Z,31.15
2022-10-17T19:47:36.923Z,31.80
2022-10-17T19:52:38.574Z,31.15
2022-10-17T19:57:40.365Z,34.17
2022-10-17T20:02:42.033Z,31.77
2022-10-17T20:07:43.672Z,31.15
2022-10-17T20:12:45.356Z,30.58
2022-10-17T20:17:47.067Z,30.42
2022-10-17T20:22:48.715Z,30.17
2022-10-17T20:27:50.351Z,30.48
2022-10-17T20:32:55.245Z,29.52
2022-10-17T20:37:57.299Z,31.17
2022-10-17T20:42:58.955Z,29.58
2022-10-17T20:48:00.622Z,29.17
2022-10-17T20:53:24.805Z,27.90
2022-10-17T20:58:23.964Z,29.70
2022-10-17T21:03:26.631Z,29.35
2022-10-17T21:08:28.445Z,29.02
2022-10-17T21:13:30.092Z,28.13
2022-10-17T21:18:31.752Z,29.40
2022-10-17T21:23:33.390Z,29.38
2022-10-17T21:28:35.994Z,29.48
2022-10-17T21:33:37.768Z,29.23
2022-10-17T21:38:40.467Z,30.23
2022-10-17T21:43:43.220Z,30.27
2022-10-17T21:48:45.927Z,27.88
2022-10-17T21:53:47.775Z,27.98
2022-10-17T21:58:51.187Z,29.02
2022-10-17T22:03:55.279Z,31.52
2022-10-17T22:08:57.180Z,32.00
2022-10-17T22:14:07.897Z,28.67
2022-10-17T22:19:11.818Z,31.23
2022-10-17T22:24:15.880Z,32.78
2022-10-17T22:29:18.046Z,32.30
2022-10-17T22:34:19.852Z,31.85
2022-10-17T22:39:21.554Z,29.52
2022-10-17T22:44:23.249Z,29.95
2022-10-17T22:49:24.905Z,30.85
2022-10-17T22:54:26.579Z,30.35
2022-10-17T22:59:28.236Z,29.45
2022-10-17T23:04:29.902Z,30.40
2022-10-17T23:09:31.559Z,31.60
2022-10-17T23:14:33.525Z,31.65
2022-10-17T23:19:35.259Z,31.67
2022-10-17T23:24:36.903Z,30.20
2022-10-17T23:29:38.559Z,28.20
2022-10-17T23:34:40.355Z,29.77
2022-10-17T23:39:42.016Z,30.27
2022-10-17T23:44:43.662Z,28.30
2022-10-17T23:49:45.515Z,30.45
2022-10-17T23:54:47.184Z,28.60
2022-10-17T23:59:48.943Z,28.25
